LDPL/PUY METAR and TAF weather

Enter ICAO airport designator
Station Type Date Time Source
LDPL METAR 2021/09/19 13:30 UTC NOAA

LDPL 191330Z 19005KT 110V250 9999 FEW020 24/17 Q1010 NOSIG


Station Type Date Time Source
LDPL Decoded METAR 2021/09/19 13:30 UTC NOAA

Pula Aerodrome, Croatia (LDPL) 45-54N 013-55E 63M
Sep 19, 2021 - 09:30 AM EDT / 2021.09.19 1330 UTC
Wind: from the S (190 degrees) at 6 MPH (5 KT) (direction variable):0
Visibility: greater than 7 mile(s):0
Sky conditions: mostly clear
Temperature: 75 F (24 C)
Dew Point: 62 F (17 C)
Relative Humidity: 64%
Pressure (altimeter): 29.83 in. Hg (1010 hPa)
ob: LDPL 191330Z 19005KT 110V250 9999 FEW020 24/17 Q1010 NOSIG
cycle: 13

Station Type Date Time Source
LDPL TAF 2021/09/19 12:27 UTC NOAA

TAF LDPL 191125Z 1912/2012 10010KT 9999 FEW030 TX23/1912Z TN15/2006Z
BECMG 1917/1919 24008KT
TEMPO 1917/1922 24018G30KT 2000 TSRA SCT010 SCT025CB BKN030
BECMG 2002/2004 32005KT PROB30
TEMPO 2008/2012 SHRA FEW030TCU

Example: see airport list